Time;durP1;ratioP1;P1;durP2;ratioP2;P2;SDS_P1;SDS_P2;PMS_P1;PMS_P2;Temp;Humidity;BMP_temperature;BMP_pressure;BME280_temperature;BME280_humidity;BME280_pressure;Samples;Min_cycle;Max_cycle;Signal;HPM_P1;HPM_P2
2021/12/16 00:01:49;;;;;;;71.88;42.97;;;;;;;8.25;100.00;103339.00;5088464;28;20692;-80
2021/12/16 00:09:54;;;;;;;69.03;43.03;;;;;;;8.30;100.00;103352.88;5087908;28;20392;-81
2021/12/16 00:29:32;;;;;;;65.63;42.13;;;;;;;8.25;100.00;103339.00;5091188;28;20059;-82
2021/12/16 00:32:05;;;;;;;74.28;43.17;;;;;;;8.26;100.00;103357.34;5089188;28;20039;-82
2021/12/16 00:34:33;;;;;;;74.53;44.45;;;;;;;8.32;100.00;103356.31;5090451;28;20255;-81
2021/12/16 00:37:00;;;;;;;69.65;42.17;;;;;;;8.28;100.00;103352.06;5090343;28;20044;-81
2021/12/16 00:39:32;;;;;;;68.68;42.25;;;;;;;8.27;100.00;103352.94;5091483;28;20115;-81
2021/12/16 00:42:05;;;;;;;72.80;43.67;;;;;;;8.27;100.00;103352.94;5091448;28;20035;-81
2021/12/16 00:45:08;;;;;;;70.55;43.75;;;;;;;8.24;100.00;103353.91;5091452;28;20024;-81
2021/12/16 00:55:50;;;;;;;74.30;44.00;;;;;;;8.21;100.00;103350.47;5090839;28;20514;-81
2021/12/16 00:58:19;;;;;;;69.75;42.22;;;;;;;8.25;100.00;103355.63;5091065;28;20058;-81
2021/12/16 01:00:55;;;;;;;66.28;42.20;;;;;;;8.22;100.00;103349.59;5091008;28;20380;-81
2021/12/16 01:03:44;;;;;;;74.40;43.35;;;;;;;8.21;100.00;103347.88;5082971;28;20024;-81
2021/12/16 01:09:01;;;;;;;72.57;42.78;;;;;;;8.23;100.00;103354.78;5090038;28;20058;-81
2021/12/16 01:36:29;;;;;;;70.43;43.25;;;;;;;8.23;100.00;103373.16;5088047;28;20039;-81
2021/12/16 01:57:41;;;;;;;66.38;41.40;;;;;;;8.23;100.00;103390.66;5082194;28;20161;-83
2021/12/16 02:00:51;;;;;;;66.60;42.20;;;;;;;8.28;100.00;103396.63;5087082;28;20024;-80
2021/12/16 02:03:24;;;;;;;67.78;41.70;;;;;;;8.26;100.00;103390.56;5086285;28;20024;-81
2021/12/16 02:06:08;;;;;;;68.00;41.70;;;;;;;8.22;100.00;103389.78;5089190;28;20024;-81
2021/12/16 02:08:38;;;;;;;69.18;42.72;;;;;;;8.25;100.00;103392.34;5089518;28;20020;-81
2021/12/16 02:37:58;;;;;;;61.72;40.92;;;;;;;8.24;100.00;103416.84;5077875;28;20544;-82
2021/12/16 02:40:23;;;;;;;61.28;39.97;;;;;;;8.25;100.00;103417.69;5088394;28;20027;-82
2021/12/16 02:42:57;;;;;;;68.20;41.45;;;;;;;8.23;100.00;103415.09;5088455;28;20024;-81
2021/12/16 02:50:53;;;;;;;67.05;40.00;;;;;;;8.22;100.00;103421.25;5089246;28;20371;-81
2021/12/16 02:53:22;;;;;;;64.25;40.70;;;;;;;8.17;100.00;103416.13;5088935;28;20027;-81
2021/12/16 02:55:47;;;;;;;63.65;40.47;;;;;;;8.21;100.00;103422.16;5089207;28;20096;-82
2021/12/16 02:58:14;;;;;;;64.50;40.97;;;;;;;8.15;100.00;103411.81;5088206;28;20020;-81
2021/12/16 03:00:45;;;;;;;64.80;40.80;;;;;;;8.23;100.00;103429.97;5086146;28;20063;-80
2021/12/16 03:03:10;;;;;;;58.83;39.83;;;;;;;8.24;100.00;103426.47;5077513;28;20115;-81
2021/12/16 03:05:36;;;;;;;65.20;41.25;;;;;;;8.18;100.00;103412.59;5087255;28;20443;-81
2021/12/16 03:08:03;;;;;;;64.70;40.17;;;;;;;8.16;100.00;103403.91;5088543;28;20457;-81
2021/12/16 03:13:22;;;;;;;67.72;41.35;;;;;;;8.22;100.00;103409.91;5090068;28;20070;-81
2021/12/16 03:18:40;;;;;;;62.22;39.90;;;;;;;8.24;100.00;103415.97;5087577;28;20377;-81
2021/12/16 03:21:17;;;;;;;65.70;39.97;;;;;;;8.24;100.00;103418.59;5087192;28;20032;-81
2021/12/16 03:23:59;;;;;;;66.72;40.88;;;;;;;8.23;100.00;103422.13;5088153;28;20142;-80
2021/12/16 03:34:44;;;;;;;65.78;40.38;;;;;;;8.24;100.00;103427.31;5088236;28;20045;-81
2021/12/16 03:37:18;;;;;;;67.63;40.35;;;;;;;8.23;100.00;103430.84;5073613;28;20043;-82
2021/12/16 03:40:06;;;;;;;60.30;39.08;;;;;;;8.24;100.00;103427.31;5088039;28;20457;-81
2021/12/16 03:42:42;;;;;;;62.58;39.22;;;;;;;8.23;100.00;103415.09;5085711;28;20447;-81
2021/12/16 03:46:25;;;;;;;60.25;39.40;;;;;;;8.23;100.00;103430.84;5091259;28;20093;-81
2021/12/16 03:48:02;;;;;;;66.20;40.65;;;;;;;8.17;100.00;103405.63;5092242;28;20042;-81
2021/12/16 03:50:27;;;;;;;67.43;41.28;;;;;;;8.17;100.00;103421.38;5091024;28;20459;-81
2021/12/16 03:52:53;;;;;;;59.03;38.47;;;;;;;8.23;100.00;103430.84;5089997;28;20048;-81
2021/12/16 03:55:22;;;;;;;62.05;38.95;;;;;;;8.23;100.00;103437.84;5092114;28;20400;-81
2021/12/16 03:57:47;;;;;;;63.92;39.67;;;;;;;8.18;100.00;103430.94;5090980;28;20106;-81
2021/12/16 04:00:21;;;;;;;58.30;39.38;;;;;;;8.14;100.00;103426.69;5091971;28;20119;-80
2021/12/16 04:02:47;;;;;;;62.13;39.58;;;;;;;8.19;100.00;103442.31;5092127;28;20074;-81
2021/12/16 04:05:14;;;;;;;60.78;38.90;;;;;;;8.22;100.00;103449.25;5089126;28;20110;-81
2021/12/16 04:07:42;;;;;;;61.63;39.63;;;;;;;8.23;100.00;103448.34;5091784;28;20054;-81
2021/12/16 04:10:13;;;;;;;63.20;39.97;;;;;;;8.15;100.00;103438.88;5085202;28;20452;-81
2021/12/16 04:12:38;;;;;;;63.80;38.92;;;;;;;8.12;100.00;103428.47;5092780;28;20024;-81
2021/12/16 04:15:07;;;;;;;62.97;40.08;;;;;;;8.15;100.00;103436.28;5092218;28;20035;-81
2021/12/16 04:17:34;;;;;;;62.00;40.40;;;;;;;8.20;100.00;103443.16;5083962;28;20027;-81
2021/12/16 04:20:03;;;;;;;59.28;39.20;;;;;;;8.21;100.00;103452.75;5092213;28;20031;-81
2021/12/16 04:22:35;;;;;;;63.78;39.70;;;;;;;8.21;100.00;103452.75;5089893;28;20572;-81
2021/12/16 04:25:08;;;;;;;64.57;40.67;;;;;;;8.15;100.00;103433.66;5090707;28;20031;-81
2021/12/16 04:27:34;;;;;;;;;;;;;;;8.29;100.00;103446.44;5091695;28;20100;-81
2021/12/16 04:29:59;;;;;;;62.60;38.78;;;;;;;8.21;100.00;103451.00;5092061;28;19911;-81
2021/12/16 04:32:25;;;;;;;65.82;39.75;;;;;;;8.19;100.00;103444.94;5090630;28;20047;-81
2021/12/16 04:34:51;;;;;;;65.60;40.15;;;;;;;8.16;100.00;103435.38;5083765;28;20031;-81
2021/12/16 04:37:17;;;;;;;60.67;40.13;;;;;;;8.16;100.00;103438.00;5091490;28;20043;-80
2021/12/16 04:39:45;;;;;;;64.00;40.78;;;;;;;8.17;100.00;103437.09;5090942;28;20036;-81
2021/12/16 04:42:16;;;;;;;61.70;38.83;;;;;;;8.15;100.00;103428.41;5088586;28;20028;-81
2021/12/16 04:44:42;;;;;;;62.40;39.28;;;;;;;8.15;100.00;103433.66;5088027;28;20040;-81
2021/12/16 04:47:08;;;;;;;65.68;40.95;;;;;;;8.18;100.00;103433.56;5090711;28;20138;-81
2021/12/16 04:49:34;;;;;;;62.63;40.10;;;;;;;8.16;100.00;103424.88;5090550;28;20117;-81
2021/12/16 04:52:05;;;;;;;66.55;39.45;;;;;;;8.08;100.00;103426.81;5090686;28;20032;-81
2021/12/16 04:54:31;;;;;;;60.67;39.38;;;;;;;8.14;100.00;103437.16;5090181;28;20500;-81
2021/12/16 04:56:58;;;;;;;62.10;39.30;;;;;;;8.06;100.00;103427.75;5088659;28;20031;-81
2021/12/16 04:59:25;;;;;;;64.85;38.88;;;;;;;8.11;100.00;103436.38;5084404;28;20477;-80
2021/12/16 05:01:55;;;;;;;56.28;38.80;;;;;;;8.09;100.00;103441.66;5086400;28;20062;-82
2021/12/16 05:04:20;;;;;;;59.22;39.17;;;;;;;8.04;100.00;103427.78;5089120;28;20027;-80
2021/12/16 05:06:46;;;;;;;63.92;38.15;;;;;;;8.04;100.00;103430.41;5089024;28;20027;-81
2021/12/16 05:09:37;;;;;;;60.33;40.08;;;;;;;8.00;100.00;103428.72;5088966;28;20517;-81
2021/12/16 05:12:00;;;;;;;62.15;38.80;;;;;;;8.04;100.00;103440.03;5090614;28;20035;-81
2021/12/16 05:14:26;;;;;;;60.88;38.53;;;;;;;7.99;100.00;103432.25;5093508;28;20020;-81
2021/12/16 05:16:51;;;;;;;59.22;38.55;;;;;;;8.02;100.00;103441.81;5083570;28;20024;-81
2021/12/16 05:19:17;;;;;;;61.13;38.42;;;;;;;7.92;100.00;103428.03;5090825;28;20040;-81
2021/12/16 05:21:55;;;;;;;60.47;38.58;;;;;;;7.97;100.00;103444.53;5090020;28;20039;-80
2021/12/16 05:24:26;;;;;;;60.45;38.88;;;;;;;7.89;100.00;103435.09;5090213;28;20458;-80
2021/12/16 05:26:55;;;;;;;64.03;38.90;;;;;;;7.92;100.00;103445.50;5089777;28;20028;-82
2021/12/16 05:29:21;;;;;;;56.20;37.45;;;;;;;7.83;100.00;103442.19;5089829;28;20030;-82
2021/12/16 05:31:47;;;;;;;56.85;36.80;;;;;;;7.78;100.00;103437.94;5084497;28;20082;-83
2021/12/16 05:34:13;;;;;;;56.03;36.45;;;;;;;7.73;100.00;103442.44;5090543;28;20051;-80
2021/12/16 05:36:39;;;;;;;57.45;36.08;;;;;;;7.74;100.00;103454.63;5089758;28;20035;-82
2021/12/16 05:39:06;;;;;;;52.42;34.63;;;;;;;7.69;100.00;103452.09;5090837;28;20020;-82
2021/12/16 05:41:32;;;;;;;52.38;36.28;;;;;;;7.66;100.00;103465.28;5089964;28;20027;-80
2021/12/16 05:43:59;;;;;;;52.10;34.22;;;;;;;7.61;100.00;103461.88;5090266;28;20027;-80
2021/12/16 05:46:27;;;;;;;51.72;35.53;;;;;;;7.52;100.00;103462.91;5090315;28;20361;-81
2021/12/16 05:48:54;;;;;;;55.92;36.10;;;;;;;7.45;100.00;103463.06;5087241;28;20024;-81
2021/12/16 05:51:32;;;;;;;53.63;34.72;;;;;;;7.41;100.00;103462.25;5083689;28;20098;-79
2021/12/16 05:54:00;;;;;;;48.35;33.97;;;;;;;7.33;99.94;103460.66;5089631;28;20053;-80
2021/12/16 05:56:26;;;;;;;52.25;33.63;;;;;;;7.30;100.00;103469.44;5087363;28;20528;-82
2021/12/16 05:58:51;;;;;;;48.80;32.67;;;;;;;7.24;99.84;103466.94;5090003;28;20102;-81
2021/12/16 06:01:24;;;;;;;49.95;33.20;;;;;;;7.23;99.55;103487.03;5089672;28;20031;-80
2021/12/16 06:03:50;;;;;;;46.05;32.90;;;;;;;7.14;99.27;103483.69;5088021;28;20490;-80
2021/12/16 06:06:16;;;;;;;43.70;32.20;;;;;;;7.14;99.35;103499.38;5088072;28;20036;-81
2021/12/16 06:08:42;;;;;;;48.13;31.83;;;;;;;7.05;99.06;103492.56;5084233;28;20024;-83
2021/12/16 06:11:15;;;;;;;48.40;33.22;;;;;;;6.94;99.27;103483.16;5089179;28;20035;-84
2021/12/16 06:22:48;;;;;;;48.17;32.30;;;;;;;6.80;98.49;103509.53;5080145;28;20716;-82
2021/12/16 06:28:04;;;;;;;49.90;32.78;;;;;;;6.69;98.75;103512.31;5089945;28;20055;-82
2021/12/16 06:30:34;;;;;;;47.83;31.42;;;;;;;6.55;98.59;103502.06;5080314;28;20061;-82
2021/12/16 06:33:00;;;;;;;47.42;31.50;;;;;;;6.60;98.76;103512.47;5089433;28;20020;-83
2021/12/16 06:35:26;;;;;;;48.67;31.65;;;;;;;6.54;99.13;103520.41;5088628;28;20032;-82
2021/12/16 06:37:52;;;;;;;47.08;31.70;;;;;;;6.44;98.59;103509.22;5088242;28;20116;-81
2021/12/16 06:40:18;;;;;;;47.75;32.78;;;;;;;6.47;98.92;103530.09;5080813;28;20036;-82
2021/12/16 06:42:46;;;;;;;48.20;32.47;;;;;;;6.42;98.98;103517.97;5087822;28;20028;-81
2021/12/16 06:45:26;;;;;;;45.85;30.98;;;;;;;6.33;99.02;103505.00;5082674;28;20030;-80
2021/12/16 06:47:58;;;;;;;50.95;31.67;;;;;;;6.33;98.49;103518.06;5082486;28;20130;-81
2021/12/16 06:53:05;;;;;;;49.40;32.75;;;;;;;6.18;98.62;103511.31;5088909;28;20112;-81
2021/12/16 07:01:30;;;;;;;47.15;31.27;;;;;;;6.09;98.79;103516.66;5087773;28;20024;-81
2021/12/16 07:03:53;;;;;;;45.95;31.42;;;;;;;6.01;99.12;103523.72;5088313;28;20100;-81
2021/12/16 07:06:29;;;;;;;48.95;32.15;;;;;;;6.05;99.14;103531.50;5086707;28;20028;-80
2021/12/16 07:08:59;;;;;;;46.97;32.00;;;;;;;5.99;99.16;103523.72;5084692;28;20027;-80
2021/12/16 07:11:25;;;;;;;51.60;33.42;;;;;;;5.93;99.25;103523.78;5085598;28;20028;-81
2021/12/16 07:13:59;;;;;;;45.60;31.20;;;;;;;5.93;99.35;103537.72;5090276;28;20024;-81
2021/12/16 07:16:26;;;;;;;47.85;31.27;;;;;;;5.90;99.17;103542.97;5086843;28;20357;-83
2021/12/16 07:18:58;;;;;;;43.95;31.10;;;;;;;5.79;98.87;103533.50;5088245;28;20024;-83
2021/12/16 07:21:24;;;;;;;48.13;31.77;;;;;;;5.76;98.75;103538.75;5090612;28;20051;-82
2021/12/16 07:26:36;;;;;;;50.17;32.17;;;;;;;5.73;99.25;103557.94;5092498;28;20050;-81
2021/12/16 07:29:03;;;;;;;47.45;31.80;;;;;;;5.69;99.24;103553.63;5085977;28;20376;-81
2021/12/16 07:31:28;;;;;;;48.28;32.50;;;;;;;5.68;99.01;103571.94;5090972;28;20028;-81
2021/12/16 07:33:55;;;;;;;49.47;31.73;;;;;;;5.64;99.12;103574.59;5092757;28;20020;-81
2021/12/16 07:36:21;;;;;;;46.38;32.10;;;;;;;5.60;99.23;103578.09;5092705;28;20047;-81
2021/12/16 07:38:48;;;;;;;50.70;33.42;;;;;;;5.57;99.23;103580.72;5091529;28;20396;-81
2021/12/16 07:41:17;;;;;;;49.25;33.25;;;;;;;5.56;99.86;103586.81;5092102;28;20416;-81
2021/12/16 07:43:58;;;;;;;47.60;31.38;;;;;;;5.57;99.83;103592.91;5090581;28;20012;-81
2021/12/16 07:46:25;;;;;;;47.88;31.10;;;;;;;5.55;99.64;103592.06;5082573;28;20040;-81
2021/12/16 07:48:51;;;;;;;45.22;31.15;;;;;;;5.52;99.73;103592.94;5083886;28;20035;-81
2021/12/16 07:51:17;;;;;;;47.80;32.00;;;;;;;5.51;99.71;103595.56;5092317;28;20024;-81
2021/12/16 07:53:43;;;;;;;51.30;31.48;;;;;;;5.47;99.47;103599.97;5092296;28;20016;-80
2021/12/16 07:56:10;;;;;;;50.03;32.83;;;;;;;5.46;99.30;103619.13;5092189;28;20060;-81
2021/12/16 07:58:37;;;;;;;49.25;32.00;;;;;;;5.39;99.47;103622.66;5089280;28;20020;-81
2021/12/16 08:01:04;;;;;;;51.05;31.83;;;;;;;5.31;99.62;103614.03;5083298;28;20468;-81
2021/12/16 08:03:35;;;;;;;49.20;32.03;;;;;;;5.38;99.38;103635.72;5074879;28;20511;-81
2021/12/16 08:06:09;;;;;;;49.97;32.10;;;;;;;5.32;99.17;103634.91;5081933;28;20032;-81
2021/12/16 08:08:35;;;;;;;45.92;31.50;;;;;;;5.30;99.30;103643.63;5080886;28;20086;-81
2021/12/16 08:11:04;;;;;;;49.35;32.05;;;;;;;5.28;99.03;103634.94;5086625;28;20019;-83
2021/12/16 08:13:29;;;;;;;46.17;30.95;;;;;;;5.25;99.31;103635.81;5090236;28;20022;-83
2021/12/16 08:15:54;;;;;;;45.50;31.17;;;;;;;5.20;99.39;103640.22;5090940;28;20118;-83
2021/12/16 08:18:20;;;;;;;52.40;31.42;;;;;;;5.15;99.18;103636.75;5088029;28;20020;-83
2021/12/16 08:20:45;;;;;;;48.25;31.85;;;;;;;5.16;99.47;103640.22;5091792;28;20536;-83
2021/12/16 08:23:14;;;;;;;45.53;31.73;;;;;;;5.16;99.44;103648.91;5091676;28;20028;-83
2021/12/16 08:25:39;;;;;;;43.30;30.05;;;;;;;5.07;99.39;103640.28;5088134;28;20421;-83
2021/12/16 08:28:06;;;;;;;46.22;31.58;;;;;;;5.07;99.50;103648.97;5091611;28;20035;-83
2021/12/16 08:30:37;;;;;;;52.03;31.45;;;;;;;5.12;99.43;103670.69;5088567;28;20277;-83
2021/12/16 08:33:09;;;;;;;54.25;32.75;;;;;;;5.07;99.88;103658.53;5090759;28;20099;-83
2021/12/16 08:35:40;;;;;;;56.08;34.55;;;;;;;5.11;100.00;103668.94;5102798;28;20110;-83
2021/12/16 08:38:06;;;;;;;53.28;33.28;;;;;;;5.11;100.00;103668.09;5089884;28;20128;-83
2021/12/16 08:40:31;;;;;;;54.58;33.88;;;;;;;5.10;100.00;103668.97;5090034;28;20035;-83
2021/12/16 08:42:57;;;;;;;51.97;31.45;;;;;;;5.06;100.00;103667.25;5090734;28;20023;-83
2021/12/16 08:45:27;;;;;;;50.75;31.58;;;;;;;5.08;100.00;103678.53;5090960;28;20032;-83
2021/12/16 08:47:54;;;;;;;49.97;31.98;;;;;;;5.08;100.00;103678.53;5092263;28;20024;-83
2021/12/16 08:50:22;;;;;;;52.47;32.30;;;;;;;5.07;100.00;103672.47;5090587;28;20428;-83
2021/12/16 08:52:48;;;;;;;53.20;31.98;;;;;;;5.07;100.00;103669.84;5091636;28;20024;-83
2021/12/16 08:55:15;;;;;;;51.08;31.77;;;;;;;5.09;100.00;103675.06;5091907;28;20521;-83
2021/12/16 08:57:41;;;;;;;44.80;31.00;;;;;;;5.07;100.00;103682.03;5090485;28;20396;-83
2021/12/16 09:00:15;;;;;;;47.15;31.20;;;;;;;5.06;100.00;103673.34;5091547;28;20035;-83
2021/12/16 09:02:40;;;;;;;55.90;31.92;;;;;;;5.14;100.00;103691.56;5091629;28;20173;-83
2021/12/16 09:05:06;;;;;;;51.13;31.45;;;;;;;5.09;100.00;103698.53;5091884;28;20058;-83
2021/12/16 09:07:32;;;;;;;51.60;33.15;;;;;;;5.16;100.00;103702.84;5079456;28;20036;-83
2021/12/16 09:09:58;;;;;;;50.47;32.78;;;;;;;5.17;100.00;103694.13;5071434;28;20024;-83
2021/12/16 09:13:12;;;;;;;59.05;35.08;;;;;;;5.25;100.00;103702.81;5086610;28;20032;-83
2021/12/16 09:15:14;;;;;;;55.33;34.30;;;;;;;5.26;100.00;103707.16;5056817;28;20048;-83
2021/12/16 09:17:39;;;;;;;56.78;35.25;;;;;;;5.32;100.00;103694.94;5070921;28;20319;-83
2021/12/16 09:20:07;;;;;;;68.60;39.78;;;;;;;5.36;100.00;103693.19;5070304;28;20025;-83
2021/12/16 09:22:33;;;;;;;61.83;38.45;;;;;;;5.44;100.00;103706.16;5070414;28;20024;-83
2021/12/16 09:24:58;;;;;;;67.63;40.33;;;;;;;5.43;100.00;103704.44;5075904;28;20032;-81
2021/12/16 09:27:24;;;;;;;75.55;42.00;;;;;;;5.49;100.00;103702.66;5068691;28;20039;-82
2021/12/16 09:29:50;;;;;;;79.30;45.40;;;;;;;5.68;100.00;103705.16;5070906;28;20099;-81
2021/12/16 09:32:16;;;;;;;89.40;47.33;;;;;;;5.75;100.00;103701.59;5071095;28;20171;-82
2021/12/16 09:34:44;;;;;;;88.40;49.40;;;;;;;5.75;100.00;103699.00;5070048;28;20024;-82
2021/12/16 09:37:10;;;;;;;90.82;49.35;;;;;;;5.89;100.00;103703.25;5070789;28;20069;-81
2021/12/16 09:39:37;;;;;;;99.53;52.17;;;;;;;5.96;100.00;103699.69;5070418;28;20040;-81
2021/12/16 09:42:04;;;;;;;106.03;54.63;;;;;;;6.02;100.00;103704.03;5074268;28;20036;-81
2021/12/16 09:44:30;;;;;;;101.57;53.67;;;;;;;6.07;100.00;103703.97;5070100;28;20034;-81
2021/12/16 09:47:01;;;;;;;97.75;53.97;;;;;;;6.17;100.00;103711.72;5070691;28;20407;-82
2021/12/16 09:49:26;;;;;;;103.65;55.00;;;;;;;6.27;100.00;103715.09;5085664;28;20405;-81
2021/12/16 09:51:55;;;;;;;97.72;51.95;;;;;;;6.26;100.00;103708.13;5091174;28;20030;-81
2021/12/16 09:54:25;;;;;;;98.10;52.47;;;;;;;6.34;100.00;103706.31;5089155;28;20016;-82
2021/12/16 09:56:51;;;;;;;122.53;59.30;;;;;;;6.51;100.00;103708.75;5089027;28;20031;-81
2021/12/16 09:59:19;;;;;;;108.88;57.50;;;;;;;6.47;100.00;103694.84;5070988;28;20034;-81
2021/12/16 10:01:47;;;;;;;121.38;60.90;;;;;;;6.57;100.00;103703.47;5071076;28;20032;-81
2021/12/16 10:04:19;;;;;;;134.43;68.40;;;;;;;6.69;100.00;103702.44;5070194;28;20087;-81
2021/12/16 10:06:47;;;;;;;112.85;63.00;;;;;;;6.69;100.00;103703.31;5070990;28;20111;-81
2021/12/16 10:09:13;;;;;;;124.50;67.97;;;;;;;6.82;100.00;103706.66;5070638;28;20036;-81
2021/12/16 10:11:44;;;;;;;151.77;76.88;;;;;;;6.88;100.00;103699.59;5085946;28;20480;-81
2021/12/16 10:19:25;;;;;;;129.30;73.10;;;;;;;7.17;100.00;103721.88;5069812;28;20506;-81
2021/12/16 10:21:53;;;;;;;132.65;73.47;;;;;;;7.23;100.00;103707.00;5069454;28;20112;-81
2021/12/16 10:24:30;;;;;;;153.57;79.97;;;;;;;7.33;100.00;103704.22;5085514;28;20020;-81
2021/12/16 10:27:12;;;;;;;151.98;80.30;;;;;;;7.45;100.00;103710.16;5070909;28;20051;-81
2021/12/16 10:29:48;;;;;;;143.97;75.10;;;;;;;7.52;100.00;103719.63;5070718;28;20185;-81
2021/12/16 10:32:40;;;;;;;139.48;75.20;;;;;;;7.62;100.00;103707.28;5079219;28;20036;-81
2021/12/16 10:35:11;;;;;;;151.15;79.22;;;;;;;7.82;100.00;103717.44;5089283;28;20475;-84
2021/12/16 10:37:43;;;;;;;139.00;76.30;;;;;;;7.88;100.00;103717.34;5088420;28;20063;-82
2021/12/16 10:40:40;;;;;;;144.60;75.68;;;;;;;7.96;100.00;103714.56;5090048;28;20036;-83
2021/12/16 10:43:22;;;;;;;128.10;72.68;;;;;;;8.00;100.00;103701.38;5090036;28;20126;-83
2021/12/16 10:45:53;;;;;;;129.45;72.60;;;;;;;8.22;100.00;103698.41;5088970;28;20059;-83
2021/12/16 10:48:28;;;;;;;119.63;67.53;;;;;;;8.26;100.00;103703.56;5083826;28;20086;-83
2021/12/16 10:50:58;;;;;;;100.60;59.63;;;;;;;8.33;100.00;103709.56;5088754;28;20118;-83
2021/12/16 10:53:51;;;;;;;98.00;58.85;;;;;;;8.42;100.00;103701.56;5088381;28;20020;-83
2021/12/16 10:56:19;;;;;;;97.45;57.38;;;;;;;8.55;100.00;103702.19;5089631;28;20024;-83
2021/12/16 10:59:06;;;;;;;95.15;57.00;;;;;;;8.67;100.00;103705.41;5089379;28;20024;-83
2021/12/16 11:01:40;;;;;;;86.82;55.25;;;;;;;8.73;100.00;103700.03;5089278;28;20197;-83
2021/12/16 11:04:19;;;;;;;79.00;51.70;;;;;;;8.85;100.00;103705.97;5087211;28;20028;-83
2021/12/16 11:07:05;;;;;;;79.03;50.63;;;;;;;8.90;100.00;103711.97;5072382;28;20404;-83
2021/12/16 11:09:41;;;;;;;73.53;47.33;;;;;;;8.97;100.00;103709.19;5067398;28;20498;-82
2021/12/16 11:12:18;;;;;;;69.82;45.20;;;;;;;9.07;100.00;103718.59;5070457;28;20029;-83
2021/12/16 11:14:48;;;;;;;62.40;41.00;;;;;;;9.11;100.00;103716.75;5106467;28;20361;-83
2021/12/16 11:17:16;;;;;;;66.85;43.40;;;;;;;9.22;100.00;103719.16;5110395;28;20016;-83
2021/12/16 11:19:50;;;;;;;61.05;39.03;;;;;;;9.29;100.00;103718.13;5110435;28;20023;-81
2021/12/16 11:22:23;;;;;;;62.13;39.53;;;;;;;9.30;100.00;103704.94;5097356;28;20125;-81
2021/12/16 11:24:50;;;;;;;55.20;33.70;;;;;;;9.38;100.00;103720.53;5070378;28;20020;-82
2021/12/16 11:27:24;;;;;;;53.38;35.53;;;;;;;9.43;100.00;103719.53;5085540;28;20029;-81
2021/12/16 11:29:49;;;;;;;51.38;34.45;;;;;;;9.39;100.00;103704.75;5070687;28;20051;-82
2021/12/16 11:32:35;;;;;;;50.15;34.15;;;;;;;9.53;100.00;103714.06;5070753;28;20024;-81
2021/12/16 11:35:00;;;;;;;46.53;30.08;;;;;;;9.55;100.00;103720.13;5068559;28;20043;-82
2021/12/16 11:37:26;;;;;;;40.30;27.00;;;;;;;9.55;100.00;103717.50;5068521;28;20037;-81
2021/12/16 11:39:51;;;;;;;37.28;26.45;;;;;;;9.54;100.00;103715.78;5070561;28;20043;-81
2021/12/16 11:42:26;;;;;;;42.58;27.00;;;;;;;9.58;100.00;103706.91;5084592;28;20437;-81
2021/12/16 11:44:52;;;;;;;39.63;25.05;;;;;;;9.59;100.00;103708.66;5090714;28;20024;-82
2021/12/16 11:47:22;;;;;;;39.00;25.73;;;;;;;9.63;100.00;103715.59;5088600;28;20103;-81
2021/12/16 11:49:49;;;;;;;43.15;25.48;;;;;;;9.64;99.77;103701.53;5089564;28;20479;-82
2021/12/16 11:52:28;;;;;;;41.55;27.45;;;;;;;9.66;99.78;103702.38;5091459;28;20024;-81
2021/12/16 11:54:58;;;;;;;38.28;27.38;;;;;;;9.67;99.98;103711.97;5090514;28;20101;-81
2021/12/16 11:57:26;;;;;;;44.50;26.65;;;;;;;9.75;99.58;103702.13;5089535;28;20181;-82
2021/12/16 12:00:06;;;;;;;41.95;27.20;;;;;;;9.81;99.57;103709.88;5084866;28;20099;-80
2021/12/16 12:02:40;;;;;;;40.17;25.27;;;;;;;9.89;100.00;103707.91;5070151;28;20502;-82
2021/12/16 12:05:15;;;;;;;36.75;24.85;;;;;;;9.99;98.50;103706.75;5089643;28;20028;-81
2021/12/16 12:07:45;;;;;;;37.05;24.90;;;;;;;10.02;98.55;103701.44;5083513;28;20391;-82
2021/12/16 12:10:15;;;;;;;33.55;23.52;;;;;;;10.05;98.08;103701.38;5082057;28;20119;-81
2021/12/16 12:12:49;;;;;;;34.75;23.67;;;;;;;10.12;97.76;103703.84;5085163;28;20036;-82
2021/12/16 12:15:17;;;;;;;38.20;23.98;;;;;;;10.11;97.94;103694.22;5083403;28;20024;-82
2021/12/16 12:17:51;;;;;;;35.70;24.05;;;;;;;10.16;97.27;103706.34;5088620;28;20107;-81
2021/12/16 12:20:24;;;;;;;36.67;22.73;;;;;;;10.14;97.42;103692.38;5089189;28;20682;-81
2021/12/16 12:22:51;;;;;;;34.28;21.88;;;;;;;10.19;97.07;103697.50;5090945;28;20115;-82
2021/12/16 12:25:18;;;;;;;38.85;23.05;;;;;;;10.24;97.04;103699.13;5089340;28;20115;-82
2021/12/16 12:27:44;;;;;;;32.13;22.15;;;;;;;10.26;96.58;103707.00;5092834;28;20031;-82
2021/12/16 12:30:10;;;;;;;32.60;21.02;;;;;;;10.29;95.94;103696.38;5092948;28;20036;-82
2021/12/16 12:32:42;;;;;;;31.33;21.85;;;;;;;10.26;96.30;103694.69;5082153;28;20099;-82
2021/12/16 12:35:12;;;;;;;28.05;21.27;;;;;;;10.35;95.44;103696.19;5088863;28;20046;-81
2021/12/16 12:37:42;;;;;;;31.00;21.45;;;;;;;10.39;95.87;103697.84;5085510;28;20037;-82
2021/12/16 12:40:10;;;;;;;29.77;21.35;;;;;;;10.43;96.52;103694.25;5092826;28;20070;-82
2021/12/16 12:42:36;;;;;;;33.05;22.60;;;;;;;10.43;95.63;103683.72;5090447;28;20088;-82
2021/12/16 12:45:04;;;;;;;31.63;21.63;;;;;;;10.50;96.52;103682.63;5091668;28;20031;-83
2021/12/16 12:47:34;;;;;;;31.65;20.83;;;;;;;10.49;96.40;103683.53;5092647;28;20027;-82
2021/12/16 12:50:34;;;;;;;33.75;22.05;;;;;;;10.62;96.10;103694.59;5092363;28;20024;-84
2021/12/16 12:53:12;;;;;;;34.05;21.45;;;;;;;10.65;94.51;103695.34;5091074;28;20028;-82
2021/12/16 12:55:37;;;;;;;32.13;21.35;;;;;;;10.70;94.76;103689.09;5090241;28;20551;-82
2021/12/16 12:58:09;;;;;;;32.03;21.45;;;;;;;10.77;94.10;103693.25;5091980;28;20099;-81
2021/12/16 13:01:00;;;;;;;30.65;21.73;;;;;;;10.83;93.55;103687.84;5089168;28;20050;-81
2021/12/16 13:03:30;;;;;;;29.45;20.75;;;;;;;10.90;92.58;103684.97;5088958;28;20396;-82
2021/12/16 13:05:59;;;;;;;27.60;20.65;;;;;;;10.93;92.34;103676.13;5089261;28;20032;-82
2021/12/16 13:08:31;;;;;;;28.23;19.67;;;;;;;10.93;91.71;103663.81;5090954;28;20024;-81
2021/12/16 13:11:15;;;;;;;29.83;21.05;;;;;;;11.05;92.04;103682.78;5090046;28;20024;-82
2021/12/16 13:14:06;;;;;;;30.75;19.27;;;;;;;11.02;91.37;103685.50;5100995;28;20031;-82
2021/12/16 13:28:40;;;;;;;23.98;15.55;;;;;;;10.78;88.84;103679.19;5065572;28;20025;-81
2021/12/16 13:31:51;;;;;;;24.27;15.73;;;;;;;10.81;89.91;103682.63;5071373;28;20466;-82
2021/12/16 13:34:25;;;;;;;21.38;14.95;;;;;;;10.76;89.58;103681.00;5069129;28;20037;-83
2021/12/16 13:36:56;;;;;;;22.70;14.48;;;;;;;10.72;88.56;103684.63;5084620;28;20024;-84
2021/12/16 13:39:25;;;;;;;22.80;14.15;;;;;;;10.65;88.84;103679.56;5090948;28;20038;-82
2021/12/16 13:41:53;;;;;;;20.88;13.35;;;;;;;10.67;88.99;103687.41;5090379;28;20115;-82
2021/12/16 13:44:42;;;;;;;21.98;13.95;;;;;;;10.66;89.93;103691.81;5091095;28;20019;-84
2021/12/16 14:01:26;;;;;;;21.75;13.57;;;;;;;10.50;88.48;103682.63;5089977;28;20035;-82
2021/12/16 14:09:23;;;;;;;22.52;14.85;;;;;;;10.43;88.76;103693.38;5087867;28;20040;-84
2021/12/16 14:14:47;;;;;;;24.60;14.88;;;;;;;10.42;89.44;103705.69;5090968;28;20519;-84
2021/12/16 14:17:49;;;;;;;25.63;14.60;;;;;;;10.36;89.50;103703.19;5087996;28;20024;-82
2021/12/16 14:23:35;;;;;;;23.50;14.85;;;;;;;10.25;88.48;103700.00;5089281;28;20035;-82
2021/12/16 14:26:38;;;;;;;21.50;14.40;;;;;;;10.24;89.23;103699.13;5088980;28;20036;-82
2021/12/16 14:34:55;;;;;;;21.63;12.70;;;;;;;10.13;87.85;103703.78;5088309;28;20027;-82
2021/12/16 14:37:34;;;;;;;26.73;13.43;;;;;;;10.11;88.14;103713.50;5088051;28;20442;-82
2021/12/16 14:40:13;;;;;;;21.00;12.35;;;;;;;10.05;88.16;103718.91;5089737;28;20099;-82
2021/12/16 14:43:15;;;;;;;21.35;12.00;;;;;;;10.00;87.86;103711.13;5083217;28;20107;-82
2021/12/16 14:45:53;;;;;;;19.95;12.95;;;;;;;9.92;88.65;103713.09;5088828;28;20058;-82